Time;durP1;ratioP1;P1;durP2;ratioP2;P2;SDS_P1;SDS_P2;PMS_P1;PMS_P2;Temp;Humidity;BMP_temperature;BMP_pressure;BME280_temperature;BME280_humidity;BME280_pressure;Samples;Min_cycle;Max_cycle;Signal;HPM_P1;HPM_P2
2024/02/17 00:01:35;;;;;;;11.45;5.47;;;16.90;52.10;;;;;;6307811;28;20016;-79
2024/02/17 00:04:36;;;;;;;12.63;5.20;;;16.90;52.10;;;;;;6300019;28;20020;-79
2024/02/17 00:07:37;;;;;;;12.32;5.25;;;16.90;52.10;;;;;;6306403;28;20541;-80
2024/02/17 00:10:38;;;;;;;14.43;6.40;;;16.90;52.10;;;;;;6300941;28;20120;-80
2024/02/17 00:13:41;;;;;;;14.13;5.07;;;16.90;52.10;;;;;;6285468;28;20016;-81
2024/02/17 00:16:42;;;;;;;16.08;5.35;;;16.90;52.10;;;;;;6310533;28;20130;-80
2024/02/17 00:19:46;;;;;;;12.65;5.65;;;16.90;52.20;;;;;;6293324;28;20017;-79
2024/02/17 00:22:47;;;;;;;11.05;4.95;;;16.90;52.30;;;;;;6296750;28;20102;-78
2024/02/17 00:25:51;;;;;;;10.15;4.38;;;16.90;52.30;;;;;;6304888;28;20027;-79
2024/02/17 00:28:52;;;;;;;10.32;4.93;;;16.90;52.30;;;;;;6302369;28;20116;-80
2024/02/17 00:31:53;;;;;;;14.45;4.85;;;17.00;52.30;;;;;;6301407;28;20036;-80
2024/02/17 00:34:58;;;;;;;9.52;5.30;;;17.00;52.20;;;;;;6292287;28;20035;-79
2024/02/17 00:38:00;;;;;;;13.25;5.22;;;17.00;52.20;;;;;;6308715;28;20020;-79
2024/02/17 00:41:04;;;;;;;8.50;4.45;;;17.00;52.20;;;;;;6280203;28;20749;-80
2024/02/17 00:44:05;;;;;;;7.30;4.25;;;17.00;52.20;;;;;;6292202;28;20115;-78
2024/02/17 00:47:06;;;;;;;12.40;5.32;;;17.00;52.20;;;;;;6303469;28;20032;-80
2024/02/17 00:50:07;;;;;;;8.48;4.97;;;17.00;52.30;;;;;;6307683;28;20082;-79
2024/02/17 00:53:09;;;;;;;14.10;5.05;;;17.00;52.30;;;;;;6305237;28;20028;-80
2024/02/17 00:56:11;;;;;;;13.07;5.60;;;17.00;52.30;;;;;;6301897;28;20016;-79
2024/02/17 00:59:14;;;;;;;8.05;4.85;;;17.00;52.40;;;;;;6286587;28;20202;-80
2024/02/17 01:02:17;;;;;;;11.60;5.43;;;17.00;53.00;;;;;;6297806;28;20097;-80
2024/02/17 01:05:18;;;;;;;12.38;4.82;;;16.80;52.40;;;;;;6297524;28;20023;-79
2024/02/17 01:08:19;;;;;;;8.63;4.60;;;16.90;52.50;;;;;;6285337;28;20380;-79
2024/02/17 01:11:19;;;;;;;9.07;4.57;;;16.90;52.60;;;;;;6296298;28;20016;-80
2024/02/17 01:14:21;;;;;;;10.93;5.40;;;16.90;52.60;;;;;;6284140;28;20016;-80
2024/02/17 01:17:23;;;;;;;12.48;5.95;;;16.90;52.70;;;;;;6266936;28;20028;-81
2024/02/17 01:20:24;;;;;;;11.93;6.43;;;16.90;52.80;;;;;;6282659;28;20108;-79
2024/02/17 01:23:25;;;;;;;13.65;5.70;;;16.80;52.90;;;;;;6305509;28;20024;-78
2024/02/17 01:26:29;;;;;;;15.68;5.28;;;16.70;52.90;;;;;;6299193;28;20206;-81
2024/02/17 01:29:33;;;;;;;11.05;5.60;;;16.60;53.10;;;;;;6285468;28;20031;-81
2024/02/17 01:32:34;;;;;;;15.05;7.18;;;16.60;53.20;;;;;;6294887;28;20016;-80
2024/02/17 01:35:35;;;;;;;18.00;6.45;;;16.60;53.40;;;;;;6308122;28;20471;-80
2024/02/17 01:38:36;;;;;;;13.13;6.00;;;16.50;53.30;;;;;;6310673;28;20050;-79
2024/02/17 01:41:37;;;;;;;11.38;6.10;;;16.50;53.40;;;;;;6316316;28;20476;-80
2024/02/17 01:44:39;;;;;;;16.92;6.35;;;16.50;53.50;;;;;;6311676;28;20031;-79
2024/02/17 01:47:41;;;;;;;39.65;15.27;;;16.40;53.50;;;;;;6301263;28;20456;-79
2024/02/17 01:50:44;;;;;;;47.55;17.50;;;16.30;53.60;;;;;;6299758;28;20063;-79
2024/02/17 01:53:45;;;;;;;36.20;15.80;;;16.30;53.80;;;;;;6291179;28;20096;-80
2024/02/17 01:56:50;;;;;;;40.72;14.68;;;16.20;53.80;;;;;;6299404;28;20017;-79
2024/02/17 01:59:53;;;;;;;77.28;30.52;;;16.20;54.00;;;;;;6252620;28;20031;-80
2024/02/17 02:02:54;;;;;;;54.55;26.05;;;16.20;54.20;;;;;;6307311;28;20347;-80
2024/02/17 02:05:57;;;;;;;69.50;25.42;;;16.10;54.30;;;;;;6309487;28;20042;-80
2024/02/17 02:09:00;;;;;;;58.22;21.13;;;16.10;54.30;;;;;;6307739;28;20338;-80
2024/02/17 02:12:01;;;;;;;41.90;18.30;;;16.10;54.30;;;;;;6296965;28;20024;-80
2024/02/17 02:15:06;;;;;;;49.65;19.08;;;16.20;54.40;;;;;;6281601;28;20524;-80
2024/02/17 02:18:12;;;;;;;52.15;19.58;;;16.00;54.40;;;;;;6281094;28;20140;-79
2024/02/17 02:21:13;;;;;;;35.28;16.63;;;16.00;54.40;;;;;;6286009;28;20163;-81
2024/02/17 02:24:14;;;;;;;36.00;14.38;;;16.00;54.40;;;;;;6288702;28;20024;-79
2024/02/17 02:27:14;;;;;;;22.10;10.25;;;16.00;54.50;;;;;;6288959;28;20552;-80
2024/02/17 02:30:15;;;;;;;29.08;11.02;;;15.90;54.60;;;;;;6297718;28;20024;-79
2024/02/17 02:33:17;;;;;;;20.88;8.88;;;15.90;54.60;;;;;;6301960;28;20042;-79
2024/02/17 02:36:20;;;;;;;20.73;8.13;;;15.90;54.70;;;;;;6306307;28;20024;-79
2024/02/17 02:39:21;;;;;;;15.02;7.22;;;15.90;54.80;;;;;;6282938;28;20024;-80
2024/02/17 02:42:26;;;;;;;20.10;8.20;;;15.90;54.80;;;;;;6297436;28;20056;-80
2024/02/17 02:45:28;;;;;;;22.02;7.25;;;15.90;54.80;;;;;;6296203;28;20581;-78
2024/02/17 02:48:30;;;;;;;15.63;7.35;;;15.90;54.80;;;;;;6284145;28;20104;-79
2024/02/17 02:51:34;;;;;;;14.73;6.75;;;15.80;54.80;;;;;;6293006;28;20405;-79
2024/02/17 02:54:36;;;;;;;18.42;7.10;;;15.90;54.80;;;;;;6311073;28;20452;-78
2024/02/17 02:57:37;;;;;;;16.40;6.55;;;15.80;54.80;;;;;;6309589;28;20473;-81
2024/02/17 03:00:39;;;;;;;20.70;6.55;;;15.90;54.90;;;;;;6306451;28;20420;-80
2024/02/17 03:03:40;;;;;;;14.90;6.03;;;15.80;54.90;;;;;;6296594;28;20032;-79
2024/02/17 03:06:41;;;;;;;13.70;5.85;;;15.80;54.90;;;;;;6272304;28;20032;-81
2024/02/17 03:09:45;;;;;;;11.27;4.78;;;15.80;55.00;;;;;;6279513;28;20026;-79
2024/02/17 03:12:45;;;;;;;9.93;4.80;;;15.80;55.00;;;;;;6302841;28;20368;-79
2024/02/17 03:15:46;;;;;;;9.98;4.60;;;15.80;55.00;;;;;;6291889;28;20028;-80
2024/02/17 03:18:48;;;;;;;6.55;3.53;;;15.80;55.00;;;;;;6307170;28;20070;-80
2024/02/17 03:21:51;;;;;;;10.57;3.90;;;15.80;55.10;;;;;;6304970;28;20044;-78
2024/02/17 03:24:52;;;;;;;11.60;5.25;;;15.80;55.10;;;;;;6323988;28;20036;-79
2024/02/17 03:27:56;;;;;;;7.55;4.40;;;15.70;55.80;;;;;;6306231;28;20153;-79
2024/02/17 03:30:58;;;;;;;10.30;3.75;;;15.70;55.40;;;;;;6270840;28;20028;-81
2024/02/17 03:34:00;;;;;;;12.38;3.70;;;15.70;55.50;;;;;;6311736;28;20023;-79
2024/02/17 03:37:01;;;;;;;6.60;3.70;;;15.60;55.50;;;;;;6311417;28;20096;-79
2024/02/17 03:40:06;;;;;;;8.50;4.47;;;15.50;55.50;;;;;;6299727;28;20452;-80
2024/02/17 03:43:08;;;;;;;12.50;4.82;;;15.60;55.70;;;;;;6311109;28;20035;-80
2024/02/17 03:46:11;;;;;;;12.27;4.50;;;15.60;55.80;;;;;;6292969;28;20032;-78
2024/02/17 03:49:12;;;;;;;7.28;3.75;;;15.60;55.80;;;;;;6275666;28;20031;-79
2024/02/17 03:52:17;;;;;;;12.20;3.90;;;15.60;55.80;;;;;;6309167;28;20105;-79
2024/02/17 03:55:18;;;;;;;9.48;3.45;;;15.70;56.50;;;;;;6292245;28;20028;-79
2024/02/17 03:58:19;;;;;;;10.65;4.15;;;15.70;55.90;;;;;;6287960;28;20111;-80
2024/02/17 04:01:21;;;;;;;13.50;4.28;;;15.70;55.80;;;;;;6292746;28;20380;-79
2024/02/17 04:04:22;;;;;;;9.90;4.13;;;15.70;56.40;;;;;;6293667;28;20582;-79
2024/02/17 04:07:23;;;;;;;8.85;3.40;;;15.60;55.90;;;;;;6290087;28;20043;-79
2024/02/17 04:10:25;;;;;;;5.70;3.72;;;15.60;56.00;;;;;;6311141;28;20217;-80
2024/02/17 04:13:26;;;;;;;18.75;4.30;;;15.70;56.10;;;;;;6303749;28;20032;-79
2024/02/17 04:16:27;;;;;;;6.10;3.70;;;15.60;56.00;;;;;;6294111;28;20051;-80
2024/02/17 04:19:28;;;;;;;12.32;4.07;;;15.60;56.00;;;;;;6307840;28;20020;-79
2024/02/17 04:22:29;;;;;;;7.50;3.35;;;15.60;56.10;;;;;;6286123;28;20464;-80
2024/02/17 04:25:31;;;;;;;12.75;3.92;;;15.60;56.20;;;;;;6290483;28;20032;-80
2024/02/17 04:28:35;;;;;;;7.97;3.83;;;15.70;56.20;;;;;;6293306;28;20028;-80
2024/02/17 04:31:37;;;;;;;7.93;4.20;;;15.70;56.10;;;;;;6305962;28;20421;-79
2024/02/17 04:34:38;;;;;;;10.13;4.22;;;15.70;56.10;;;;;;6293103;28;20024;-79
2024/02/17 04:37:41;;;;;;;9.32;3.58;;;15.80;56.10;;;;;;6309212;28;20039;-80
2024/02/17 04:40:42;;;;;;;5.82;3.75;;;15.80;56.00;;;;;;6308631;28;20057;-80
2024/02/17 04:43:47;;;;;;;7.93;3.70;;;15.80;55.90;;;;;;6294514;28;20051;-78
2024/02/17 04:46:48;;;;;;;7.78;4.10;;;15.80;55.90;;;;;;6304868;28;20039;-79
2024/02/17 04:49:49;;;;;;;7.15;4.10;;;15.80;56.00;;;;;;6307262;28;20028;-79
2024/02/17 04:52:51;;;;;;;7.47;3.72;;;15.80;56.10;;;;;;6308866;28;20027;-80
2024/02/17 04:55:52;;;;;;;9.10;3.90;;;15.80;56.10;;;;;;6283992;28;20130;-80
2024/02/17 04:58:52;;;;;;;6.13;3.38;;;15.80;56.10;;;;;;6293858;28;20028;-79
2024/02/17 05:01:54;;;;;;;6.43;3.30;;;15.80;56.00;;;;;;6312008;28;20028;-80
2024/02/17 05:04:56;;;;;;;9.93;4.00;;;15.70;56.00;;;;;;6295607;28;20115;-79
2024/02/17 05:07:57;;;;;;;7.47;3.28;;;15.70;56.00;;;;;;6286709;28;20039;-80
2024/02/17 05:10:59;;;;;;;11.25;4.15;;;15.70;56.10;;;;;;6282749;28;20064;-78
2024/02/17 05:14:00;;;;;;;9.57;3.70;;;15.60;56.10;;;;;;6304369;28;20156;-79
2024/02/17 05:17:00;;;;;;;8.30;4.35;;;15.60;56.20;;;;;;6307901;28;20024;-80
2024/02/17 05:20:02;;;;;;;12.05;4.97;;;15.60;56.30;;;;;;6290542;28;20033;-80
2024/02/17 05:23:03;;;;;;;7.53;3.85;;;15.50;56.40;;;;;;6290873;28;20399;-79
2024/02/17 05:26:04;;;;;;;7.40;3.78;;;15.50;56.50;;;;;;6307259;28;20112;-79
2024/02/17 05:29:06;;;;;;;10.32;4.88;;;15.50;56.50;;;;;;6286442;28;20051;-80
2024/02/17 05:32:07;;;;;;;10.02;4.10;;;15.50;56.40;;;;;;6306744;28;20024;-80
2024/02/17 05:35:09;;;;;;;11.30;4.80;;;15.50;56.40;;;;;;6299566;28;20071;-78
2024/02/17 05:38:09;;;;;;;10.25;5.03;;;15.50;56.30;;;;;;6266467;28;20133;-80
2024/02/17 05:41:10;;;;;;;10.38;4.85;;;15.50;56.40;;;;;;6290376;28;20020;-80
2024/02/17 05:44:11;;;;;;;8.35;4.32;;;15.50;56.30;;;;;;6308555;28;20458;-79
2024/02/17 05:47:12;;;;;;;7.97;4.13;;;15.50;56.30;;;;;;6299100;28;20126;-80
2024/02/17 05:50:14;;;;;;;7.18;4.35;;;15.60;56.30;;;;;;6297223;28;20012;-80
2024/02/17 05:53:16;;;;;;;9.35;4.68;;;15.60;56.30;;;;;;6307144;28;20020;-80
2024/02/17 05:56:17;;;;;;;11.10;4.95;;;15.80;56.30;;;;;;6273305;28;20024;-79
2024/02/17 05:59:17;;;;;;;7.85;4.80;;;15.60;56.20;;;;;;6272769;28;20085;-80
2024/02/17 06:02:18;;;;;;;17.13;5.95;;;15.60;56.20;;;;;;6304526;28;20024;-79
2024/02/17 06:05:19;;;;;;;12.63;5.05;;;15.60;56.20;;;;;;6300476;28;20040;-78
2024/02/17 06:08:21;;;;;;;15.57;5.03;;;15.60;56.20;;;;;;6282742;28;20033;-79
2024/02/17 06:11:22;;;;;;;7.03;4.50;;;15.60;56.20;;;;;;6301576;28;20020;-80
2024/02/17 06:14:24;;;;;;;9.60;5.70;;;15.60;56.20;;;;;;6293413;28;20741;-79
2024/02/17 06:17:28;;;;;;;9.25;4.65;;;15.60;56.20;;;;;;6288426;28;20024;-79
2024/02/17 06:23:51;;;;;;;13.25;5.28;;;15.60;56.20;;;;;;6278611;28;20032;-80
2024/02/17 06:26:52;;;;;;;11.25;5.25;;;15.60;56.20;;;;;;6308492;28;20175;-79
2024/02/17 06:29:52;;;;;;;6.32;4.03;;;15.60;56.20;;;;;;6308880;28;20024;-79
2024/02/17 06:32:56;;;;;;;12.05;4.70;;;15.60;56.20;;;;;;6298579;28;20449;-80
2024/02/17 06:35:57;;;;;;;12.85;4.55;;;15.40;56.10;;;;;;6297203;28;20070;-81
2024/02/17 06:38:59;;;;;;;10.70;4.30;;;15.60;56.30;;;;;;6294595;28;20028;-79
2024/02/17 06:42:00;;;;;;;10.52;4.72;;;15.50;56.20;;;;;;6312953;28;20020;-79
2024/02/17 06:45:03;;;;;;;9.10;4.43;;;15.50;56.30;;;;;;6319311;28;20095;-78
2024/02/17 06:48:04;;;;;;;11.65;5.22;;;15.50;56.30;;;;;;6273289;28;20128;-80
2024/02/17 06:51:07;;;;;;;10.10;5.28;;;15.50;56.30;;;;;;6302038;28;20551;-81
2024/02/17 06:54:08;;;;;;;8.02;4.65;;;15.60;56.40;;;;;;6306702;28;20090;-81
2024/02/17 06:57:09;;;;;;;23.15;4.75;;;15.60;56.30;;;;;;6275714;28;20040;-80
2024/02/17 07:00:12;;;;;;;13.57;6.05;;;15.60;56.30;;;;;;6298067;28;20127;-81
2024/02/17 07:03:15;;;;;;;12.23;5.70;;;15.60;56.30;;;;;;6311280;28;20031;-80
2024/02/17 07:06:19;;;;;;;12.80;5.20;;;15.60;56.30;;;;;;6303177;28;20410;-79
2024/02/17 07:09:22;;;;;;;15.50;4.93;;;15.60;56.30;;;;;;6290851;28;20038;-79
2024/02/17 07:12:23;;;;;;;11.63;4.45;;;15.60;56.30;;;;;;6295763;28;20202;-80
2024/02/17 07:15:26;;;;;;;9.38;4.60;;;15.60;56.30;;;;;;6307962;28;20032;-80
2024/02/17 07:18:27;;;;;;;11.77;5.28;;;15.60;56.30;;;;;;6309131;28;20031;-80
2024/02/17 07:21:32;;;;;;;10.68;4.47;;;15.60;56.30;;;;;;6304018;28;20040;-81
2024/02/17 07:24:33;;;;;;;9.35;4.15;;;15.60;56.30;;;;;;6303105;28;20164;-77
2024/02/17 07:27:35;;;;;;;9.95;4.38;;;15.60;56.20;;;;;;6310306;28;20038;-79
2024/02/17 07:30:36;;;;;;;8.15;3.95;;;15.60;56.20;;;;;;6305127;28;20147;-80
2024/02/17 07:33:38;;;;;;;13.13;4.40;;;15.60;56.20;;;;;;6291031;28;20019;-79
2024/02/17 07:36:41;;;;;;;7.57;4.32;;;15.50;56.30;;;;;;6300779;28;20084;-80
2024/02/17 07:39:42;;;;;;;8.57;4.20;;;15.50;56.30;;;;;;6287126;28;20484;-79
2024/02/17 07:42:43;;;;;;;9.52;4.53;;;15.50;56.30;;;;;;6299509;28;20039;-79
2024/02/17 07:45:46;;;;;;;10.57;4.40;;;15.50;56.30;;;;;;6292974;28;20503;-80
2024/02/17 07:48:47;;;;;;;14.60;4.20;;;15.50;56.30;;;;;;6268641;28;20043;-80
2024/02/17 07:51:49;;;;;;;10.73;4.30;;;15.60;56.40;;;;;;6295311;28;20076;-78
2024/02/17 07:54:52;;;;;;;14.55;5.00;;;15.60;56.30;;;;;;6293215;28;20375;-80
2024/02/17 07:57:55;;;;;;;11.00;4.32;;;15.60;56.30;;;;;;6310874;28;20711;-80
2024/02/17 08:00:59;;;;;;;9.70;4.13;;;15.70;56.20;;;;;;6305841;28;20084;-80
2024/02/17 08:04:01;;;;;;;9.98;5.07;;;15.70;56.20;;;;;;6308327;28;20461;-80
2024/02/17 08:07:02;;;;;;;8.27;4.30;;;15.70;56.10;;;;;;6281067;28;20075;-79
2024/02/17 08:10:08;;;;;;;9.85;4.43;;;15.70;56.10;;;;;;6297098;28;20094;-81
2024/02/17 08:13:10;;;;;;;11.57;4.15;;;15.80;56.10;;;;;;6302943;28;20040;-79
2024/02/17 08:16:11;;;;;;;7.85;4.25;;;15.80;56.10;;;;;;6309569;28;20027;-79
2024/02/17 08:19:13;;;;;;;13.80;5.07;;;15.80;56.00;;;;;;6309168;28;20056;-80
2024/02/17 08:22:15;;;;;;;9.88;4.97;;;15.80;56.00;;;;;;6305119;28;20016;-81
2024/02/17 08:25:16;;;;;;;11.35;5.32;;;15.80;55.90;;;;;;6292498;28;20019;-78
2024/02/17 08:28:17;;;;;;;9.25;4.78;;;15.80;55.90;;;;;;6316504;28;20043;-80
2024/02/17 08:31:18;;;;;;;8.20;4.18;;;15.90;55.90;;;;;;6304299;28;20028;-80
2024/02/17 08:34:19;;;;;;;8.07;4.30;;;15.90;56.00;;;;;;6290527;28;20034;-79
2024/02/17 08:37:20;;;;;;;11.40;5.00;;;15.90;56.30;;;;;;6292097;28;20032;-80
2024/02/17 08:40:22;;;;;;;13.05;4.78;;;15.90;56.30;;;;;;6324969;28;20035;-80
2024/02/17 08:43:22;;;;;;;10.15;4.40;;;15.90;56.20;;;;;;6301777;28;20068;-80
2024/02/17 08:46:24;;;;;;;9.40;4.53;;;16.00;56.10;;;;;;6300131;28;20128;-80
2024/02/17 08:49:29;;;;;;;14.70;5.03;;;15.90;55.90;;;;;;6307872;28;20024;-79
2024/02/17 08:52:32;;;;;;;11.43;5.03;;;15.90;55.90;;;;;;6307013;28;20173;-79
2024/02/17 08:55:33;;;;;;;12.68;5.75;;;15.90;56.00;;;;;;6293365;28;20037;-79
2024/02/17 08:58:38;;;;;;;13.52;5.60;;;15.90;55.90;;;;;;6305812;28;20035;-80
2024/02/17 09:01:39;;;;;;;10.82;4.95;;;15.90;55.80;;;;;;6282500;28;20043;-79
2024/02/17 09:04:44;;;;;;;13.02;4.80;;;15.90;55.90;;;;;;6307082;28;20031;-80
2024/02/17 09:07:45;;;;;;;15.82;5.13;;;15.90;55.90;;;;;;6305117;28;20039;-81
2024/02/17 09:10:46;;;;;;;13.65;5.20;;;15.90;55.90;;;;;;6307778;28;20057;-81
2024/02/17 09:13:48;;;;;;;11.80;3.92;;;15.90;55.90;;;;;;6291937;28;20020;-80
2024/02/17 09:16:51;;;;;;;7.90;3.97;;;15.80;56.10;;;;;;6281356;28;20016;-81
2024/02/17 09:19:52;;;;;;;10.02;4.20;;;15.80;56.50;;;;;;6282874;28;20035;-80
2024/02/17 09:22:53;;;;;;;11.80;4.53;;;15.80;56.80;;;;;;6301527;28;20515;-81
2024/02/17 09:25:55;;;;;;;16.10;3.75;;;15.70;56.70;;;;;;6295315;28;20214;-81
2024/02/17 09:28:56;;;;;;;5.10;2.38;;;15.80;56.70;;;;;;6291171;28;20065;-80
2024/02/17 09:31:57;;;;;;;5.50;3.25;;;15.90;56.90;;;;;;6290517;28;20516;-81
2024/02/17 09:34:58;;;;;;;6.57;2.20;;;15.90;56.90;;;;;;6285160;28;20059;-81
2024/02/17 09:37:59;;;;;;;8.15;4.28;;;16.00;57.00;;;;;;6298998;28;20088;-80
2024/02/17 09:41:02;;;;;;;5.20;3.22;;;16.10;57.20;;;;;;6309893;28;20020;-80
2024/02/17 09:44:03;;;;;;;9.50;1.85;;;16.10;57.20;;;;;;6298341;28;20126;-81
2024/02/17 09:47:05;;;;;;;2.17;1.50;;;16.20;57.50;;;;;;6291163;28;20135;-81
2024/02/17 09:50:12;;;;;;;1.63;1.23;;;16.20;57.60;;;;;;6309270;28;20031;-80
2024/02/17 09:53:15;;;;;;;1.23;1.08;;;16.30;57.90;;;;;;6275982;28;20027;-81
2024/02/17 09:56:17;;;;;;;1.30;1.00;;;16.30;58.20;;;;;;6283901;28;20115;-81
2024/02/17 09:59:18;;;;;;;1.60;0.90;;;16.30;58.40;;;;;;6275777;28;20024;-80
2024/02/17 10:02:19;;;;;;;1.55;1.00;;;16.30;58.40;;;;;;6300768;28;20513;-81
2024/02/17 10:05:23;;;;;;;5.00;0.85;;;16.40;58.50;;;;;;6308772;28;20141;-80
2024/02/17 10:08:28;;;;;;;1.85;1.23;;;16.40;58.50;;;;;;6310343;28;20112;-80
2024/02/17 10:11:31;;;;;;;1.40;1.08;;;16.30;58.60;;;;;;6287624;28;20028;-81
2024/02/17 10:14:33;;;;;;;1.63;1.10;;;16.30;58.60;;;;;;6309801;28;20016;-78
2024/02/17 10:17:34;;;;;;;0.90;0.90;;;16.30;58.70;;;;;;6307367;28;20032;-79
2024/02/17 10:20:37;;;;;;;3.05;1.10;;;16.30;58.80;;;;;;6306555;28;20139;-81
2024/02/17 10:23:39;;;;;;;1.13;1.02;;;16.20;58.80;;;;;;6285405;28;20535;-80
2024/02/17 10:26:41;;;;;;;1.00;0.90;;;16.20;58.90;;;;;;6277271;28;20115;-82
2024/02/17 10:29:43;;;;;;;2.38;1.10;;;16.30;59.00;;;;;;6308661;28;20031;-80
2024/02/17 10:32:45;;;;;;;4.50;1.02;;;16.30;58.90;;;;;;6300537;28;20024;-80
2024/02/17 10:35:47;;;;;;;1.92;1.20;;;16.30;58.80;;;;;;6286674;28;20041;-80
2024/02/17 10:38:48;;;;;;;2.70;1.13;;;16.30;58.80;;;;;;6292164;28;20031;-82
2024/02/17 10:41:49;;;;;;;1.45;1.00;;;16.30;58.80;;;;;;6305775;28;20138;-81
2024/02/17 10:44:52;;;;;;;1.80;1.40;;;16.30;58.80;;;;;;6299508;28;20016;-81
2024/02/17 10:48:04;;;;;;;3.17;1.40;;;16.30;58.70;;;;;;6294616;28;20340;-82
2024/02/17 10:51:05;;;;;;;4.13;1.38;;;16.30;58.80;;;;;;6305299;28;20052;-81
2024/02/17 10:54:10;;;;;;;1.85;1.20;;;16.30;58.80;;;;;;6288925;28;20453;-82
2024/02/17 10:57:16;;;;;;;3.08;1.05;;;16.30;58.80;;;;;;6305467;28;20044;-81
2024/02/17 11:00:19;;;;;;;1.50;1.08;;;16.20;58.80;;;;;;6289039;28;20059;-80
2024/02/17 11:03:28;;;;;;;1.92;1.25;;;16.30;58.90;;;;;;6305291;28;20028;-81
2024/02/17 11:06:31;;;;;;;2.67;1.45;;;16.30;58.80;;;;;;6292851;28;20102;-81
2024/02/17 11:09:33;;;;;;;2.78;1.33;;;16.30;58.70;;;;;;6301385;28;20027;-81
2024/02/17 11:12:38;;;;;;;3.33;1.27;;;16.30;58.70;;;;;;6273623;28;20026;-81
2024/02/17 11:16:00;;;;;;;3.10;1.52;;;16.40;58.60;;;;;;6294355;28;20024;-80
2024/02/17 11:19:01;;;;;;;3.13;1.58;;;16.50;58.50;;;;;;6307150;28;20420;-79
2024/02/17 11:22:06;;;;;;;4.30;1.70;;;16.60;58.40;;;;;;6312097;28;20032;-80
2024/02/17 11:25:09;;;;;;;5.82;1.52;;;16.60;58.30;;;;;;6311294;28;20044;-80
2024/02/17 11:28:17;;;;;;;3.63;1.50;;;16.60;58.20;;;;;;6306732;28;20492;-82
2024/02/17 11:31:33;;;;;;;2.95;1.50;;;16.60;58.10;;;;;;6311851;28;20478;-81
2024/02/17 11:34:34;;;;;;;6.07;1.98;;;16.60;58.10;;;;;;6312152;28;20048;-81
2024/02/17 11:37:37;;;;;;;3.90;1.80;;;16.70;58.10;;;;;;6271343;28;20028;-80
2024/02/17 11:40:40;;;;;;;3.70;1.85;;;16.80;58.00;;;;;;6311217;28;20023;-79
2024/02/17 11:43:41;;;;;;;2.35;1.63;;;16.90;57.80;;;;;;6294733;28;20108;-81
2024/02/17 11:46:43;;;;;;;2.63;1.38;;;16.90;57.60;;;;;;6295091;28;20440;-79
2024/02/17 11:49:44;;;;;;;1.98;1.27;;;17.10;57.50;;;;;;6305224;28;20016;-81
2024/02/17 11:52:46;;;;;;;2.90;1.50;;;17.10;57.20;;;;;;6294640;28;20036;-80
2024/02/17 11:56:04;;;;;;;1.92;1.45;;;17.20;57.00;;;;;;6309208;28;20051;-80
2024/02/17 11:59:09;;;;;;;2.08;1.40;;;17.30;56.80;;;;;;6303080;28;20019;-81
2024/02/17 12:02:10;;;;;;;2.45;1.40;;;17.40;56.40;;;;;;6309639;28;20121;-80
2024/02/17 12:05:15;;;;;;;1.67;1.35;;;17.50;56.20;;;;;;6305248;28;20028;-78
2024/02/17 12:08:19;;;;;;;2.22;1.50;;;17.50;56.10;;;;;;6296921;28;20063;-80
2024/02/17 12:11:21;;;;;;;2.33;1.50;;;17.50;56.20;;;;;;6272969;28;20043;-82
2024/02/17 12:14:24;;;;;;;4.13;1.92;;;17.60;56.10;;;;;;6265217;28;20039;-80
2024/02/17 12:17:26;;;;;;;2.38;1.52;;;17.70;55.90;;;;;;6295367;28;20107;-80
2024/02/17 12:20:26;;;;;;;2.47;1.80;;;18.20;55.30;;;;;;6286598;28;20107;-80
2024/02/17 12:23:29;;;;;;;2.00;1.48;;;18.30;54.50;;;;;;6308031;28;20436;-80
2024/02/17 12:26:32;;;;;;;3.05;1.80;;;18.30;54.20;;;;;;6276053;28;20396;-81
2024/02/17 12:29:33;;;;;;;2.58;1.48;;;18.10;54.30;;;;;;6307553;28;20089;-80
2024/02/17 12:32:40;;;;;;;1.70;1.10;;;18.00;54.50;;;;;;6311494;28;20464;-81
2024/02/17 12:35:57;;;;;;;2.85;1.35;;;17.90;54.60;;;;;;6293432;28;20012;-80
2024/02/17 12:39:06;;;;;;;1.98;1.40;;;17.80;54.90;;;;;;6272747;28;20080;-80
2024/02/17 12:42:08;;;;;;;3.85;1.50;;;17.60;55.10;;;;;;6307664;28;20663;-81
2024/02/17 12:45:28;;;;;;;3.58;2.00;;;17.60;55.20;;;;;;6304195;28;20020;-81
2024/02/17 12:48:29;;;;;;;2.47;1.63;;;17.60;55.20;;;;;;6307415;28;20492;-79
2024/02/17 12:51:31;;;;;;;2.30;1.70;;;17.50;55.10;;;;;;6303308;28;20107;-80
2024/02/17 12:54:33;;;;;;;1.33;1.20;;;17.50;55.30;;;;;;6302928;28;20538;-80
2024/02/17 12:57:35;;;;;;;1.90;1.50;;;17.30;55.50;;;;;;6310627;28;20095;-81
2024/02/17 13:00:43;;;;;;;4.18;1.77;;;17.20;55.70;;;;;;6299028;28;20059;-81
2024/02/17 13:03:47;;;;;;;3.17;1.75;;;17.10;55.90;;;;;;6290937;28;20032;-80
2024/02/17 13:06:48;;;;;;;3.75;2.00;;;17.00;56.20;;;;;;6306111;28;20040;-79
2024/02/17 13:09:49;;;;;;;3.35;1.70;;;16.90;56.40;;;;;;6317158;28;20127;-79
2024/02/17 13:12:51;;;;;;;5.38;2.10;;;16.80;56.80;;;;;;6307740;28;20027;-79
2024/02/17 13:15:51;;;;;;;2.92;1.80;;;16.60;57.20;;;;;;6315162;28;20483;-81
2024/02/17 13:18:56;;;;;;;3.88;2.13;;;16.60;57.60;;;;;;6297980;28;21331;-81
2024/02/17 13:21:57;;;;;;;6.82;2.33;;;16.50;57.60;;;;;;6294282;28;20023;-80
2024/02/17 13:24:58;;;;;;;4.03;2.05;;;16.50;57.60;;;;;;6307905;28;20483;-79
2024/02/17 13:27:59;;;;;;;1.88;1.33;;;16.50;57.70;;;;;;6310725;28;20407;-80
2024/02/17 13:31:02;;;;;;;5.25;2.33;;;16.50;57.70;;;;;;6306091;28;20028;-80
2024/02/17 13:34:04;;;;;;;4.45;1.70;;;16.50;57.70;;;;;;6317494;28;20062;-81
2024/02/17 13:37:05;;;;;;;4.75;1.50;;;16.50;57.70;;;;;;6315047;28;20080;-81
2024/02/17 13:40:08;;;;;;;2.75;1.65;;;16.60;57.60;;;;;;6301940;28;20121;-79
2024/02/17 13:43:11;;;;;;;3.25;1.48;;;16.60;57.50;;;;;;6308172;28;20039;-82
2024/02/17 13:46:12;;;;;;;3.78;1.77;;;16.70;57.40;;;;;;6304814;28;20020;-80
2024/02/17 13:49:13;;;;;;;2.40;1.52;;;16.70;57.30;;;;;;6275902;28;20575;-82
2024/02/17 13:52:15;;;;;;;2.95;1.73;;;16.60;57.40;;;;;;6304900;28;20123;-79
2024/02/17 13:55:16;;;;;;;2.15;1.48;;;16.50;57.40;;;;;;6293031;28;20043;-81
2024/02/17 13:58:17;;;;;;;6.45;1.35;;;16.50;57.70;;;;;;6289620;28;20527;-80
2024/02/17 14:01:18;;;;;;;2.88;1.85;;;16.40;57.80;;;;;;6307953;28;20741;-81
2024/02/17 14:04:21;;;;;;;2.45;1.48;;;16.30;58.00;;;;;;6307712;28;20020;-80
2024/02/17 14:07:22;;;;;;;5.10;1.25;;;16.20;58.30;;;;;;6294377;28;20034;-80
2024/02/17 14:10:23;;;;;;;3.42;1.25;;;16.20;58.50;;;;;;6294932;28;21345;-81
2024/02/17 14:13:24;;;;;;;5.13;1.50;;;16.00;58.80;;;;;;6304497;28;20456;-78
2024/02/17 14:16:25;;;;;;;2.60;1.35;;;16.00;59.00;;;;;;6326270;28;20019;-79
2024/02/17 14:19:26;;;;;;;11.50;1.80;;;15.90;59.70;;;;;;6278472;28;20430;-80
2024/02/17 14:22:27;;;;;;;2.45;1.52;;;15.90;59.10;;;;;;6308282;28;20016;-80
2024/02/17 14:25:33;;;;;;;3.45;1.25;;;15.90;59.20;;;;;;6303730;28;20515;-80
2024/02/17 14:28:34;;;;;;;1.13;0.85;;;15.90;59.20;;;;;;6274712;28;20047;-82
2024/02/17 14:31:40;;;;;;;1.40;1.05;;;15.80;59.40;;;;;;6309558;28;20106;-80
2024/02/17 14:34:41;;;;;;;1.30;1.20;;;15.70;60.30;;;;;;6309548;28;20042;-80
2024/02/17 14:37:43;;;;;;;6.43;2.17;;;15.70;59.80;;;;;;6268286;28;20041;-80
2024/02/17 14:40:45;;;;;;;7.15;1.92;;;15.60;59.90;;;;;;6297660;28;20043;-80
2024/02/17 14:43:47;;;;;;;1.40;1.30;;;15.50;59.90;;;;;;6309525;28;20130;-82
2024/02/17 14:46:49;;;;;;;5.72;1.63;;;15.60;60.10;;;;;;6294669;28;20445;-82
2024/02/17 14:49:51;;;;;;;2.45;1.45;;;15.50;60.30;;;;;;6302509;28;20035;-79
2024/02/17 14:52:54;;;;;;;2.10;1.30;;;15.50;60.50;;;;;;6302876;28;20032;-82
2024/02/17 14:55:56;;;;;;;1.25;1.15;;;15.50;61.30;;;;;;6312774;28;20020;-79
2024/02/17 14:58:58;;;;;;;2.83;1.13;;;15.40;61.30;;;;;;6307067;28;20027;-81
2024/02/17 15:01:59;;;;;;;4.78;1.50;;;15.50;60.50;;;;;;6300501;28;20020;-80
2024/02/17 15:05:00;;;;;;;6.38;1.45;;;15.50;60.40;;;;;;6299173;28;20341;-80
2024/02/17 15:08:03;;;;;;;1.38;1.00;;;15.50;60.40;;;;;;6305194;28;20028;-81
2024/02/17 15:11:05;;;;;;;8.40;1.58;;;15.40;60.60;;;;;;6320525;28;20020;-80
2024/02/17 15:14:07;;;;;;;2.35;1.25;;;15.40;60.60;;;;;;6326804;28;20016;-81
2024/02/17 15:17:07;;;;;;;1.73;1.30;;;15.40;60.60;;;;;;6317734;28;20021;-82
2024/02/17 15:20:10;;;;;;;1.83;1.38;;;15.30;60.70;;;;;;6303371;28;20162;-81
2024/02/17 15:23:13;;;;;;;3.35;1.15;;;15.30;60.80;;;;;;6315011;28;20024;-80
2024/02/17 15:26:14;;;;;;;2.00;1.42;;;15.30;60.80;;;;;;6299074;28;20119;-82
2024/02/17 15:29:18;;;;;;;3.35;1.33;;;15.30;60.80;;;;;;6300737;28;20028;-79
2024/02/17 15:32:19;;;;;;;4.55;1.17;;;15.30;60.80;;;;;;6308220;28;20100;-81
2024/02/17 15:35:25;;;;;;;1.60;1.15;;;15.30;60.70;;;;;;6302661;28;20806;-82
2024/02/17 15:38:26;;;;;;;4.53;1.30;;;15.30;60.70;;;;;;6313983;28;20028;-81
2024/02/17 15:41:28;;;;;;;3.00;1.20;;;15.30;60.70;;;;;;6297562;28;20051;-81
2024/02/17 15:44:33;;;;;;;1.48;0.98;;;15.20;60.70;;;;;;6291152;28;20123;-79
2024/02/17 15:47:35;;;;;;;10.55;1.70;;;15.30;60.80;;;;;;6301496;28;20027;-82